<?xml version="1.0" encoding="UTF-8" standalone="no" ?>
<gpx xmlns="http://www.topografix.com/GPX/1/1" xmlns:xsi="http://www.w3.org/2001/XMLSchema-instance" xsi:schemaLocation="http://www.topografix.com/GPX/1/1 http://www.topografix.com/GPX/1/1/gpx.xsd" version="1.1" creator="VisuGPX - https://www.visugpx.com">
  <metadata>
    <name>La Grotte des nains à Ferrette</name>
  </metadata>
  <trk>
    <name><![CDATA[La Grotte des nains à Ferrette, 7 avril 2024]]></name>
    <extensions>
      <line xmlns="http://www.topografix.com/GPX/gpx_style/0/2">
        <color>0000FF</color>
        <width>4</width>
      </line>
    </extensions>
    <trkseg>
      <trkpt lat="47.49033" lon="7.32882">
        <ele>621.9</ele>
        <time>2024-04-25T07:00:00.000Z</time>
      </trkpt>
      <trkpt lat="47.49001" lon="7.32818">
        <ele>612.4</ele>
        <time>2024-04-25T07:01:01.765Z</time>
      </trkpt>
      <trkpt lat="47.4894" lon="7.32787">
        <ele>602.4</ele>
        <time>2024-04-25T07:02:15.804Z</time>
      </trkpt>
      <trkpt lat="47.48878" lon="7.32734">
        <ele>596</ele>
        <time>2024-04-25T07:03:37.435Z</time>
      </trkpt>
      <trkpt lat="47.488" lon="7.32655">
        <ele>598.3</ele>
        <time>2024-04-25T07:05:25.324Z</time>
      </trkpt>
      <trkpt lat="47.4874" lon="7.32578">
        <ele>598.8</ele>
        <time>2024-04-25T07:06:54.822Z</time>
      </trkpt>
      <trkpt lat="47.48691" lon="7.32532">
        <ele>604.4</ele>
        <time>2024-04-25T07:08:01.507Z</time>
      </trkpt>
      <trkpt lat="47.48693" lon="7.32473">
        <ele>597.8</ele>
        <time>2024-04-25T07:08:47.143Z</time>
      </trkpt>
      <trkpt lat="47.48698" lon="7.32465">
        <ele>596.1</ele>
        <time>2024-04-25T07:08:56.496Z</time>
      </trkpt>
      <trkpt lat="47.48701" lon="7.32452">
        <ele>594.7</ele>
        <time>2024-04-25T07:09:06.489Z</time>
      </trkpt>
      <trkpt lat="47.48692" lon="7.32432">
        <ele>594.6</ele>
        <time>2024-04-25T07:09:25.154Z</time>
      </trkpt>
      <trkpt lat="47.48675" lon="7.32408">
        <ele>595.3</ele>
        <time>2024-04-25T07:09:51.435Z</time>
      </trkpt>
      <trkpt lat="47.4868" lon="7.32394">
        <ele>594</ele>
        <time>2024-04-25T07:10:03.630Z</time>
      </trkpt>
      <trkpt lat="47.48699" lon="7.32299">
        <ele>590.3</ele>
        <time>2024-04-25T07:11:19.402Z</time>
      </trkpt>
      <trkpt lat="47.48727" lon="7.32256">
        <ele>588.4</ele>
        <time>2024-04-25T07:12:05.422Z</time>
      </trkpt>
      <trkpt lat="47.48749" lon="7.32232">
        <ele>586.1</ele>
        <time>2024-04-25T07:12:37.092Z</time>
      </trkpt>
      <trkpt lat="47.48763" lon="7.32212">
        <ele>583.3</ele>
        <time>2024-04-25T07:12:58.739Z</time>
      </trkpt>
      <trkpt lat="47.48777" lon="7.32115">
        <ele>580.4</ele>
        <time>2024-04-25T07:14:14.393Z</time>
      </trkpt>
      <trkpt lat="47.48788" lon="7.32037">
        <ele>576.7</ele>
        <time>2024-04-25T07:15:15.925Z</time>
      </trkpt>
      <trkpt lat="47.4879" lon="7.31939">
        <ele>571.1</ele>
        <time>2024-04-25T07:16:31.199Z</time>
      </trkpt>
      <trkpt lat="47.48793" lon="7.31901">
        <ele>567.8</ele>
        <time>2024-04-25T07:17:00.986Z</time>
      </trkpt>
      <trkpt lat="47.48782" lon="7.31866">
        <ele>567.6</ele>
        <time>2024-04-25T07:17:30.361Z</time>
      </trkpt>
      <trkpt lat="47.48776" lon="7.31848">
        <ele>567.5</ele>
        <time>2024-04-25T07:17:45.920Z</time>
      </trkpt>
      <trkpt lat="47.48776" lon="7.31809">
        <ele>568.1</ele>
        <time>2024-04-25T07:18:15.236Z</time>
      </trkpt>
      <trkpt lat="47.48803" lon="7.31695">
        <ele>570.5</ele>
        <time>2024-04-25T07:19:48.118Z</time>
      </trkpt>
      <trkpt lat="47.48812" lon="7.31612">
        <ele>571.6</ele>
        <time>2024-04-25T07:20:53.026Z</time>
      </trkpt>
      <trkpt lat="47.48817" lon="7.31576">
        <ele>569.9</ele>
        <time>2024-04-25T07:21:21.297Z</time>
      </trkpt>
      <trkpt lat="47.48838" lon="7.31299">
        <ele>559.8</ele>
        <time>2024-04-25T07:24:55.369Z</time>
      </trkpt>
      <trkpt lat="47.48847" lon="7.31231">
        <ele>561.4</ele>
        <time>2024-04-25T07:25:48.368Z</time>
      </trkpt>
      <trkpt lat="47.48857" lon="7.31179">
        <ele>563.5</ele>
        <time>2024-04-25T07:26:29.739Z</time>
      </trkpt>
      <trkpt lat="47.48794" lon="7.31124">
        <ele>563.7</ele>
        <time>2024-04-25T07:27:52.950Z</time>
      </trkpt>
      <trkpt lat="47.48758" lon="7.31094">
        <ele>561</ele>
        <time>2024-04-25T07:28:40.391Z</time>
      </trkpt>
      <trkpt lat="47.48762" lon="7.31085">
        <ele>561.2</ele>
        <time>2024-04-25T07:28:48.161Z</time>
      </trkpt>
      <trkpt lat="47.48868" lon="7.31173">
        <ele>564.3</ele>
        <time>2024-04-25T07:31:05.435Z</time>
      </trkpt>
      <trkpt lat="47.48908" lon="7.31157">
        <ele>567.6</ele>
        <time>2024-04-25T07:31:52.904Z</time>
      </trkpt>
      <trkpt lat="47.48937" lon="7.31135">
        <ele>571.2</ele>
        <time>2024-04-25T07:32:29.948Z</time>
      </trkpt>
      <trkpt lat="47.48972" lon="7.31114">
        <ele>574.5</ele>
        <time>2024-04-25T07:33:13.637Z</time>
      </trkpt>
      <trkpt lat="47.48997" lon="7.31095">
        <ele>577.4</ele>
        <time>2024-04-25T07:33:45.327Z</time>
      </trkpt>
      <trkpt lat="47.49033" lon="7.31054">
        <ele>588</ele>
        <time>2024-04-25T07:34:37.558Z</time>
      </trkpt>
      <trkpt lat="47.49094" lon="7.30987">
        <ele>602.9</ele>
        <time>2024-04-25T07:36:05.562Z</time>
      </trkpt>
      <trkpt lat="47.49136" lon="7.3095">
        <ele>614.6</ele>
        <time>2024-04-25T07:37:01.891Z</time>
      </trkpt>
      <trkpt lat="47.4914" lon="7.30801">
        <ele>630.3</ele>
        <time>2024-04-25T07:38:57.347Z</time>
      </trkpt>
      <trkpt lat="47.49143" lon="7.30725">
        <ele>636.3</ele>
        <time>2024-04-25T07:39:55.866Z</time>
      </trkpt>
      <trkpt lat="47.49162" lon="7.30615">
        <ele>643.4</ele>
        <time>2024-04-25T07:41:23.832Z</time>
      </trkpt>
      <trkpt lat="47.49174" lon="7.30539">
        <ele>649.3</ele>
        <time>2024-04-25T07:42:23.337Z</time>
      </trkpt>
      <trkpt lat="47.4918" lon="7.30497">
        <ele>653.2</ele>
        <time>2024-04-25T07:42:56.951Z</time>
      </trkpt>
      <trkpt lat="47.49179" lon="7.30474">
        <ele>654.8</ele>
        <time>2024-04-25T07:43:14.366Z</time>
      </trkpt>
      <trkpt lat="47.49131" lon="7.30387">
        <ele>654.4</ele>
        <time>2024-04-25T07:44:40.642Z</time>
      </trkpt>
      <trkpt lat="47.49097" lon="7.30328">
        <ele>656.4</ele>
        <time>2024-04-25T07:45:40.814Z</time>
      </trkpt>
      <trkpt lat="47.49048" lon="7.30242">
        <ele>658.4</ele>
        <time>2024-04-25T07:47:06.532Z</time>
      </trkpt>
      <trkpt lat="47.49024" lon="7.30128">
        <ele>657.6</ele>
        <time>2024-04-25T07:48:38.114Z</time>
      </trkpt>
      <trkpt lat="47.48995" lon="7.30021">
        <ele>656.6</ele>
        <time>2024-04-25T07:50:06.857Z</time>
      </trkpt>
      <trkpt lat="47.48947" lon="7.29872">
        <ele>651.7</ele>
        <time>2024-04-25T07:52:13.280Z</time>
      </trkpt>
      <trkpt lat="47.48931" lon="7.29809">
        <ele>647.2</ele>
        <time>2024-04-25T07:53:04.923Z</time>
      </trkpt>
      <trkpt lat="47.48964" lon="7.29814">
        <ele>649.2</ele>
        <time>2024-04-25T07:53:43.285Z</time>
      </trkpt>
      <trkpt lat="47.49" lon="7.29826">
        <ele>652.1</ele>
        <time>2024-04-25T07:54:24.620Z</time>
      </trkpt>
      <trkpt lat="47.49031" lon="7.29862">
        <ele>650.3</ele>
        <time>2024-04-25T07:55:10.064Z</time>
      </trkpt>
      <trkpt lat="47.49088" lon="7.29954">
        <ele>650.6</ele>
        <time>2024-04-25T07:56:44.996Z</time>
      </trkpt>
      <trkpt lat="47.49124" lon="7.3004">
        <ele>652.7</ele>
        <time>2024-04-25T07:58:03.396Z</time>
      </trkpt>
      <trkpt lat="47.49147" lon="7.30095">
        <ele>655</ele>
        <time>2024-04-25T07:58:52.812Z</time>
      </trkpt>
      <trkpt lat="47.4916" lon="7.30127">
        <ele>657.7</ele>
        <time>2024-04-25T07:59:21.601Z</time>
      </trkpt>
      <trkpt lat="47.49177" lon="7.30183">
        <ele>663.4</ele>
        <time>2024-04-25T08:00:09.219Z</time>
      </trkpt>
      <trkpt lat="47.49194" lon="7.30228">
        <ele>666.8</ele>
        <time>2024-04-25T08:00:48.304Z</time>
      </trkpt>
      <trkpt lat="47.49218" lon="7.3024">
        <ele>668.5</ele>
        <time>2024-04-25T08:01:17.797Z</time>
      </trkpt>
      <trkpt lat="47.49258" lon="7.30246">
        <ele>669.1</ele>
        <time>2024-04-25T08:02:03.223Z</time>
      </trkpt>
      <trkpt lat="47.493" lon="7.30274">
        <ele>665.4</ele>
        <time>2024-04-25T08:02:54.972Z</time>
      </trkpt>
      <trkpt lat="47.49345" lon="7.30293">
        <ele>655.4</ele>
        <time>2024-04-25T08:03:49.394Z</time>
      </trkpt>
      <trkpt lat="47.49365" lon="7.30326">
        <ele>644.8</ele>
        <time>2024-04-25T08:04:25.024Z</time>
      </trkpt>
      <trkpt lat="47.49382" lon="7.30224">
        <ele>638.2</ele>
        <time>2024-04-25T08:05:45.607Z</time>
      </trkpt>
      <trkpt lat="47.49393" lon="7.3017">
        <ele>632.7</ele>
        <time>2024-04-25T08:06:29.321Z</time>
      </trkpt>
      <trkpt lat="47.49409" lon="7.30162">
        <ele>627.6</ele>
        <time>2024-04-25T08:06:49.347Z</time>
      </trkpt>
      <trkpt lat="47.49432" lon="7.30154">
        <ele>619.3</ele>
        <time>2024-04-25T08:07:17.200Z</time>
      </trkpt>
      <trkpt lat="47.49465" lon="7.30144">
        <ele>607.4</ele>
        <time>2024-04-25T08:07:57.382Z</time>
      </trkpt>
      <trkpt lat="47.49471" lon="7.3013">
        <ele>607.8</ele>
        <time>2024-04-25T08:08:09.816Z</time>
      </trkpt>
      <trkpt lat="47.49459" lon="7.30087">
        <ele>619.6</ele>
        <time>2024-04-25T08:08:47.178Z</time>
      </trkpt>
      <trkpt lat="47.49565" lon="7.29996">
        <ele>594.3</ele>
        <time>2024-04-25T08:11:08.772Z</time>
      </trkpt>
      <trkpt lat="47.49608" lon="7.2999">
        <ele>581.6</ele>
        <time>2024-04-25T08:11:59.780Z</time>
      </trkpt>
      <trkpt lat="47.49664" lon="7.30006">
        <ele>567</ele>
        <time>2024-04-25T08:13:06.250Z</time>
      </trkpt>
      <trkpt lat="47.49709" lon="7.30022">
        <ele>551.7</ele>
        <time>2024-04-25T08:14:00.630Z</time>
      </trkpt>
      <trkpt lat="47.49755" lon="7.30009">
        <ele>538.8</ele>
        <time>2024-04-25T08:14:55.379Z</time>
      </trkpt>
      <trkpt lat="47.49762" lon="7.3">
        <ele>537</ele>
        <time>2024-04-25T08:15:06.237Z</time>
      </trkpt>
      <trkpt lat="47.49773" lon="7.30005">
        <ele>532.1</ele>
        <time>2024-04-25T08:15:20.287Z</time>
      </trkpt>
      <trkpt lat="47.49776" lon="7.30021">
        <ele>529.4</ele>
        <time>2024-04-25T08:15:33.478Z</time>
      </trkpt>
      <trkpt lat="47.49762" lon="7.30043">
        <ele>532.6</ele>
        <time>2024-04-25T08:15:56.872Z</time>
      </trkpt>
      <trkpt lat="47.49729" lon="7.30078">
        <ele>539</ele>
        <time>2024-04-25T08:16:43.030Z</time>
      </trkpt>
      <trkpt lat="47.49712" lon="7.3011">
        <ele>540</ele>
        <time>2024-04-25T08:17:14.647Z</time>
      </trkpt>
      <trkpt lat="47.49667" lon="7.30235">
        <ele>535.4</ele>
        <time>2024-04-25T08:19:03.189Z</time>
      </trkpt>
      <trkpt lat="47.49656" lon="7.30277">
        <ele>531</ele>
        <time>2024-04-25T08:19:37.745Z</time>
      </trkpt>
      <trkpt lat="47.49657" lon="7.30358">
        <ele>521.4</ele>
        <time>2024-04-25T08:20:40.325Z</time>
      </trkpt>
      <trkpt lat="47.49673" lon="7.30479">
        <ele>511.1</ele>
        <time>2024-04-25T08:22:15.825Z</time>
      </trkpt>
      <trkpt lat="47.49663" lon="7.30505">
        <ele>511.8</ele>
        <time>2024-04-25T08:22:38.776Z</time>
      </trkpt>
      <trkpt lat="47.49658" lon="7.30583">
        <ele>510.2</ele>
        <time>2024-04-25T08:23:38.410Z</time>
      </trkpt>
      <trkpt lat="47.49645" lon="7.30646">
        <ele>511</ele>
        <time>2024-04-25T08:24:29.002Z</time>
      </trkpt>
      <trkpt lat="47.49639" lon="7.30688">
        <ele>510.9</ele>
        <time>2024-04-25T08:25:01.587Z</time>
      </trkpt>
      <trkpt lat="47.49627" lon="7.30792">
        <ele>509.8</ele>
        <time>2024-04-25T08:26:22.637Z</time>
      </trkpt>
      <trkpt lat="47.49617" lon="7.30882">
        <ele>506.9</ele>
        <time>2024-04-25T08:27:32.533Z</time>
      </trkpt>
      <trkpt lat="47.49601" lon="7.30976">
        <ele>503.5</ele>
        <time>2024-04-25T08:28:47.209Z</time>
      </trkpt>
      <trkpt lat="47.4958" lon="7.31032">
        <ele>502.8</ele>
        <time>2024-04-25T08:29:35.848Z</time>
      </trkpt>
      <trkpt lat="47.49541" lon="7.3112">
        <ele>505.7</ele>
        <time>2024-04-25T08:30:57.379Z</time>
      </trkpt>
      <trkpt lat="47.49524" lon="7.31154">
        <ele>505.6</ele>
        <time>2024-04-25T08:31:29.451Z</time>
      </trkpt>
      <trkpt lat="47.49521" lon="7.31186">
        <ele>501.6</ele>
        <time>2024-04-25T08:31:54.835Z</time>
      </trkpt>
      <trkpt lat="47.49475" lon="7.31229">
        <ele>503.6</ele>
        <time>2024-04-25T08:32:56.939Z</time>
      </trkpt>
      <trkpt lat="47.4948" lon="7.31236">
        <ele>501.2</ele>
        <time>2024-04-25T08:33:05.041Z</time>
      </trkpt>
      <trkpt lat="47.49506" lon="7.31224">
        <ele>498.2</ele>
        <time>2024-04-25T08:33:36.277Z</time>
      </trkpt>
      <trkpt lat="47.49532" lon="7.31215">
        <ele>495.9</ele>
        <time>2024-04-25T08:34:07.076Z</time>
      </trkpt>
      <trkpt lat="47.49539" lon="7.31238">
        <ele>491.7</ele>
        <time>2024-04-25T08:34:26.801Z</time>
      </trkpt>
      <trkpt lat="47.49475" lon="7.31295">
        <ele>494</ele>
        <time>2024-04-25T08:35:50.721Z</time>
      </trkpt>
      <trkpt lat="47.49432" lon="7.31334">
        <ele>490.6</ele>
        <time>2024-04-25T08:36:48.044Z</time>
      </trkpt>
      <trkpt lat="47.49417" lon="7.31369">
        <ele>492.7</ele>
        <time>2024-04-25T08:37:19.898Z</time>
      </trkpt>
      <trkpt lat="47.49431" lon="7.31396">
        <ele>495.4</ele>
        <time>2024-04-25T08:37:46.165Z</time>
      </trkpt>
      <trkpt lat="47.49445" lon="7.3145">
        <ele>508.1</ele>
        <time>2024-04-25T08:38:32.225Z</time>
      </trkpt>
      <trkpt lat="47.49476" lon="7.3146">
        <ele>514.6</ele>
        <time>2024-04-25T08:39:08.711Z</time>
      </trkpt>
      <trkpt lat="47.49501" lon="7.31467">
        <ele>518.7</ele>
        <time>2024-04-25T08:39:38.326Z</time>
      </trkpt>
      <trkpt lat="47.49537" lon="7.31451">
        <ele>508</ele>
        <time>2024-04-25T08:40:22.870Z</time>
      </trkpt>
      <trkpt lat="47.49551" lon="7.31445">
        <ele>504.3</ele>
        <time>2024-04-25T08:40:39.782Z</time>
      </trkpt>
      <trkpt lat="47.49567" lon="7.31432">
        <ele>499.9</ele>
        <time>2024-04-25T08:41:00.840Z</time>
      </trkpt>
      <trkpt lat="47.4958" lon="7.31417">
        <ele>496.4</ele>
        <time>2024-04-25T08:41:19.671Z</time>
      </trkpt>
      <trkpt lat="47.496" lon="7.31426">
        <ele>493.4</ele>
        <time>2024-04-25T08:41:43.227Z</time>
      </trkpt>
      <trkpt lat="47.49613" lon="7.3144">
        <ele>491.7</ele>
        <time>2024-04-25T08:42:01.988Z</time>
      </trkpt>
      <trkpt lat="47.49618" lon="7.31452">
        <ele>491.7</ele>
        <time>2024-04-25T08:42:13.222Z</time>
      </trkpt>
      <trkpt lat="47.49625" lon="7.31473">
        <ele>491.8</ele>
        <time>2024-04-25T08:42:30.880Z</time>
      </trkpt>
      <trkpt lat="47.49635" lon="7.31505">
        <ele>491.5</ele>
        <time>2024-04-25T08:42:57.651Z</time>
      </trkpt>
      <trkpt lat="47.49623" lon="7.31531">
        <ele>494.4</ele>
        <time>2024-04-25T08:43:22.548Z</time>
      </trkpt>
      <trkpt lat="47.49579" lon="7.31609">
        <ele>503</ele>
        <time>2024-04-25T08:44:40.851Z</time>
      </trkpt>
      <trkpt lat="47.49566" lon="7.3169">
        <ele>500.9</ele>
        <time>2024-04-25T08:45:44.369Z</time>
      </trkpt>
      <trkpt lat="47.49515" lon="7.31869">
        <ele>507.2</ele>
        <time>2024-04-25T08:48:13.980Z</time>
      </trkpt>
      <trkpt lat="47.49503" lon="7.31893">
        <ele>510.5</ele>
        <time>2024-04-25T08:48:37.107Z</time>
      </trkpt>
      <trkpt lat="47.49457" lon="7.31913">
        <ele>522.2</ele>
        <time>2024-04-25T08:49:32.125Z</time>
      </trkpt>
      <trkpt lat="47.49449" lon="7.31896">
        <ele>526.5</ele>
        <time>2024-04-25T08:49:49.281Z</time>
      </trkpt>
      <trkpt lat="47.49448" lon="7.31865">
        <ele>530.3</ele>
        <time>2024-04-25T08:50:12.824Z</time>
      </trkpt>
      <trkpt lat="47.49447" lon="7.31852">
        <ele>531.9</ele>
        <time>2024-04-25T08:50:23.049Z</time>
      </trkpt>
      <trkpt lat="47.4946" lon="7.3182">
        <ele>530.8</ele>
        <time>2024-04-25T08:50:52.129Z</time>
      </trkpt>
      <trkpt lat="47.49465" lon="7.31761">
        <ele>535.8</ele>
        <time>2024-04-25T08:51:37.369Z</time>
      </trkpt>
      <trkpt lat="47.49455" lon="7.31737">
        <ele>541.4</ele>
        <time>2024-04-25T08:52:00.120Z</time>
      </trkpt>
      <trkpt lat="47.49385" lon="7.31866">
        <ele>552.4</ele>
        <time>2024-04-25T08:54:07.748Z</time>
      </trkpt>
      <trkpt lat="47.49347" lon="7.31923">
        <ele>553.3</ele>
        <time>2024-04-25T08:55:09.630Z</time>
      </trkpt>
      <trkpt lat="47.49336" lon="7.31935">
        <ele>553.7</ele>
        <time>2024-04-25T08:55:25.047Z</time>
      </trkpt>
      <trkpt lat="47.49329" lon="7.3193">
        <ele>557.1</ele>
        <time>2024-04-25T08:55:34.432Z</time>
      </trkpt>
      <trkpt lat="47.49334" lon="7.3189">
        <ele>565.2</ele>
        <time>2024-04-25T08:56:06.730Z</time>
      </trkpt>
      <trkpt lat="47.49368" lon="7.31841">
        <ele>563.2</ele>
        <time>2024-04-25T08:57:00.598Z</time>
      </trkpt>
      <trkpt lat="47.49401" lon="7.31758">
        <ele>559.4</ele>
        <time>2024-04-25T08:58:14.431Z</time>
      </trkpt>
      <trkpt lat="47.49402" lon="7.31738">
        <ele>559.6</ele>
        <time>2024-04-25T08:58:30.011Z</time>
      </trkpt>
      <trkpt lat="47.49388" lon="7.31729">
        <ele>562</ele>
        <time>2024-04-25T08:58:46.550Z</time>
      </trkpt>
      <trkpt lat="47.49325" lon="7.31767">
        <ele>577.2</ele>
        <time>2024-04-25T09:00:05.812Z</time>
      </trkpt>
      <trkpt lat="47.49275" lon="7.31824">
        <ele>581.3</ele>
        <time>2024-04-25T09:01:16.922Z</time>
      </trkpt>
      <trkpt lat="47.4925" lon="7.31871">
        <ele>584.5</ele>
        <time>2024-04-25T09:02:03.556Z</time>
      </trkpt>
      <trkpt lat="47.49237" lon="7.31907">
        <ele>579.6</ele>
        <time>2024-04-25T09:02:34.889Z</time>
      </trkpt>
      <trkpt lat="47.49239" lon="7.32007">
        <ele>563.1</ele>
        <time>2024-04-25T09:03:53.408Z</time>
      </trkpt>
      <trkpt lat="47.49238" lon="7.32045">
        <ele>555</ele>
        <time>2024-04-25T09:04:23.954Z</time>
      </trkpt>
      <trkpt lat="47.4922" lon="7.32048">
        <ele>553</ele>
        <time>2024-04-25T09:04:44.516Z</time>
      </trkpt>
      <trkpt lat="47.4922" lon="7.32141">
        <ele>538.2</ele>
        <time>2024-04-25T09:05:57.149Z</time>
      </trkpt>
      <trkpt lat="47.49217" lon="7.32166">
        <ele>534.9</ele>
        <time>2024-04-25T09:06:16.747Z</time>
      </trkpt>
      <trkpt lat="47.49239" lon="7.3218">
        <ele>533.9</ele>
        <time>2024-04-25T09:06:44.405Z</time>
      </trkpt>
      <trkpt lat="47.49251" lon="7.32191">
        <ele>534.1</ele>
        <time>2024-04-25T09:07:00.277Z</time>
      </trkpt>
      <trkpt lat="47.49343" lon="7.32189">
        <ele>541</ele>
        <time>2024-04-25T09:08:44.292Z</time>
      </trkpt>
      <trkpt lat="47.49385" lon="7.32155">
        <ele>532.9</ele>
        <time>2024-04-25T09:09:38.898Z</time>
      </trkpt>
      <trkpt lat="47.49366" lon="7.3222">
        <ele>544.1</ele>
        <time>2024-04-25T09:10:34.066Z</time>
      </trkpt>
      <trkpt lat="47.49379" lon="7.3222">
        <ele>542.4</ele>
        <time>2024-04-25T09:10:48.816Z</time>
      </trkpt>
      <trkpt lat="47.49371" lon="7.32256">
        <ele>549</ele>
        <time>2024-04-25T09:11:18.825Z</time>
      </trkpt>
      <trkpt lat="47.49417" lon="7.32233">
        <ele>538.5</ele>
        <time>2024-04-25T09:12:14.908Z</time>
      </trkpt>
      <trkpt lat="47.4943" lon="7.32253">
        <ele>537.4</ele>
        <time>2024-04-25T09:12:36.933Z</time>
      </trkpt>
      <trkpt lat="47.49425" lon="7.32273">
        <ele>540.1</ele>
        <time>2024-04-25T09:12:53.400Z</time>
      </trkpt>
      <trkpt lat="47.49418" lon="7.32326">
        <ele>546</ele>
        <time>2024-04-25T09:13:35.197Z</time>
      </trkpt>
      <trkpt lat="47.49412" lon="7.32344">
        <ele>549</ele>
        <time>2024-04-25T09:13:51.135Z</time>
      </trkpt>
      <trkpt lat="47.49399" lon="7.32384">
        <ele>555.4</ele>
        <time>2024-04-25T09:14:25.645Z</time>
      </trkpt>
      <trkpt lat="47.494" lon="7.3245">
        <ele>559.4</ele>
        <time>2024-04-25T09:15:16.878Z</time>
      </trkpt>
      <trkpt lat="47.494" lon="7.32531">
        <ele>566</ele>
        <time>2024-04-25T09:16:19.192Z</time>
      </trkpt>
      <trkpt lat="47.49394" lon="7.32601">
        <ele>576.9</ele>
        <time>2024-04-25T09:17:14.543Z</time>
      </trkpt>
      <trkpt lat="47.49403" lon="7.32615">
        <ele>576.4</ele>
        <time>2024-04-25T09:17:29.013Z</time>
      </trkpt>
      <trkpt lat="47.49401" lon="7.32662">
        <ele>583.5</ele>
        <time>2024-04-25T09:18:05.694Z</time>
      </trkpt>
      <trkpt lat="47.49398" lon="7.3268">
        <ele>586.7</ele>
        <time>2024-04-25T09:18:20.674Z</time>
      </trkpt>
      <trkpt lat="47.49406" lon="7.32701">
        <ele>587.4</ele>
        <time>2024-04-25T09:18:38.853Z</time>
      </trkpt>
      <trkpt lat="47.49381" lon="7.32707">
        <ele>594.8</ele>
        <time>2024-04-25T09:19:08.361Z</time>
      </trkpt>
      <trkpt lat="47.49385" lon="7.32791">
        <ele>603.7</ele>
        <time>2024-04-25T09:20:13.653Z</time>
      </trkpt>
      <trkpt lat="47.4938" lon="7.3285">
        <ele>609.6</ele>
        <time>2024-04-25T09:20:59.737Z</time>
      </trkpt>
      <trkpt lat="47.49426" lon="7.33115">
        <ele>592</ele>
        <time>2024-04-25T09:24:30.672Z</time>
      </trkpt>
      <trkpt lat="47.49467" lon="7.333">
        <ele>595.9</ele>
        <time>2024-04-25T09:26:59.808Z</time>
      </trkpt>
      <trkpt lat="47.49494" lon="7.33453">
        <ele>576.3</ele>
        <time>2024-04-25T09:29:02.521Z</time>
      </trkpt>
      <trkpt lat="47.49528" lon="7.33346">
        <ele>579.7</ele>
        <time>2024-04-25T09:30:33.082Z</time>
      </trkpt>
      <trkpt lat="47.49532" lon="7.33444">
        <ele>570</ele>
        <time>2024-04-25T09:31:49.083Z</time>
      </trkpt>
      <trkpt lat="47.495" lon="7.33488">
        <ele>569.8</ele>
        <time>2024-04-25T09:32:38.906Z</time>
      </trkpt>
      <trkpt lat="47.49485" lon="7.33524">
        <ele>565.6</ele>
        <time>2024-04-25T09:33:11.567Z</time>
      </trkpt>
      <trkpt lat="47.49472" lon="7.33517">
        <ele>569.4</ele>
        <time>2024-04-25T09:33:27.091Z</time>
      </trkpt>
      <trkpt lat="47.49474" lon="7.33535">
        <ele>565.1</ele>
        <time>2024-04-25T09:33:41.124Z</time>
      </trkpt>
      <trkpt lat="47.49462" lon="7.33525">
        <ele>569.3</ele>
        <time>2024-04-25T09:33:56.961Z</time>
      </trkpt>
      <trkpt lat="47.49452" lon="7.3355">
        <ele>564.8</ele>
        <time>2024-04-25T09:34:19.724Z</time>
      </trkpt>
      <trkpt lat="47.49443" lon="7.33543">
        <ele>567.9</ele>
        <time>2024-04-25T09:34:32.317Z</time>
      </trkpt>
      <trkpt lat="47.49398" lon="7.33548">
        <ele>570.6</ele>
        <time>2024-04-25T09:35:23.047Z</time>
      </trkpt>
      <trkpt lat="47.49375" lon="7.33525">
        <ele>576.4</ele>
        <time>2024-04-25T09:35:55.399Z</time>
      </trkpt>
      <trkpt lat="47.493" lon="7.33312">
        <ele>603.8</ele>
        <time>2024-04-25T09:39:01.946Z</time>
      </trkpt>
      <trkpt lat="47.49263" lon="7.33232">
        <ele>605.6</ele>
        <time>2024-04-25T09:40:16.094Z</time>
      </trkpt>
      <trkpt lat="47.49217" lon="7.33143">
        <ele>612.9</ele>
        <time>2024-04-25T09:41:41.906Z</time>
      </trkpt>
      <trkpt lat="47.49183" lon="7.33091">
        <ele>617.3</ele>
        <time>2024-04-25T09:42:37.997Z</time>
      </trkpt>
      <trkpt lat="47.491" lon="7.32978">
        <ele>624</ele>
        <time>2024-04-25T09:44:45.908Z</time>
      </trkpt>
      <trkpt lat="47.49033" lon="7.32882">
        <ele>621.9</ele>
        <time>2024-04-25T09:46:31.528Z</time>
      </trkpt>
    </trkseg>
  </trk>
</gpx>